Time;durP1;ratioP1;P1;durP2;ratioP2;P2;SDS_P1;SDS_P2;PMS_P1;PMS_P2;Temp;Humidity;BMP_temperature;BMP_pressure;BME280_temperature;BME280_humidity;BME280_pressure;Samples;Min_cycle;Max_cycle;Signal;HPM_P1;HPM_P2
2022/05/20 00:01:36;;;;;;;3.50;2.97;;;;;;;18.99;75.55;99048.66;4136174;28;20229;-52
2022/05/20 00:03:39;;;;;;;2.55;2.13;;;;;;;19.01;75.60;99057.50;4140880;28;20255;-51
2022/05/20 00:05:41;;;;;;;4.68;3.33;;;;;;;19.04;75.67;99049.44;4142510;28;20268;-51
2022/05/20 00:07:43;;;;;;;3.33;3.03;;;;;;;19.04;75.86;99051.41;4152233;28;20580;-52
2022/05/20 00:09:45;;;;;;;2.75;2.55;;;;;;;19.03;75.13;99046.94;4134164;28;20221;-51
2022/05/20 00:11:47;;;;;;;6.00;3.05;;;;;;;19.04;75.61;99041.13;4133858;28;20276;-51
2022/05/20 00:13:48;;;;;;;2.97;2.63;;;;;;;19.05;75.45;99036.41;4134969;28;20206;-51
2022/05/20 00:15:51;;;;;;;2.97;2.22;;;;;;;19.06;75.44;99032.50;4133679;28;20212;-52
2022/05/20 00:17:54;;;;;;;3.15;2.55;;;;;;;19.06;75.38;99032.50;4141582;28;20211;-52
2022/05/20 00:19:56;;;;;;;5.32;3.15;;;;;;;19.07;75.06;99028.59;4149460;28;20212;-51
2022/05/20 00:21:57;;;;;;;3.33;2.95;;;;;;;19.05;75.42;99020.56;4134724;28;20759;-52
2022/05/20 00:23:59;;;;;;;3.58;2.10;;;;;;;19.03;75.37;99031.16;4133531;28;20213;-51
2022/05/20 00:26:01;;;;;;;2.08;1.98;;;;;;;19.04;75.16;99034.75;4139563;28;20209;-52
2022/05/20 00:28:03;;;;;;;2.75;2.45;;;;;;;19.04;75.16;99040.31;4138441;28;20690;-52
2022/05/20 00:30:05;;;;;;;2.75;2.55;;;;;;;19.02;75.69;99042.53;4142990;28;20709;-51
2022/05/20 00:32:07;;;;;;;2.75;2.40;;;;;;;19.00;75.34;99042.00;4155700;28;20305;-52
2022/05/20 00:34:09;;;;;;;2.33;2.13;;;;;;;18.97;75.18;99042.59;4152982;28;20276;-52
2022/05/20 00:36:11;;;;;;;2.42;2.22;;;;;;;18.94;75.65;99046.78;4138075;28;20210;-52
2022/05/20 00:38:13;;;;;;;2.13;1.95;;;;;;;18.93;75.36;99039.53;4138128;28;20201;-51
2022/05/20 00:40:21;;;;;;;2.90;2.58;;;;;;;18.87;76.06;99045.44;4139814;28;20198;-51
2022/05/20 00:42:23;;;;;;;2.25;2.05;;;;;;;18.90;75.73;99050.41;4138740;28;20298;-51
2022/05/20 00:44:25;;;;;;;2.45;2.20;;;;;;;18.90;75.92;99056.78;4139622;28;20232;-51
2022/05/20 00:46:28;;;;;;;2.65;2.13;;;;;;;18.92;75.92;99059.28;4139919;28;20300;-52
2022/05/20 00:48:30;;;;;;;2.80;2.45;;;;;;;18.85;76.95;99058.78;4139279;28;20587;-51
2022/05/20 00:50:33;;;;;;;2.65;2.15;;;;;;;18.77;77.49;99051.09;4139084;28;20218;-52
2022/05/20 00:52:37;;;;;;;2.40;2.20;;;;;;;18.71;77.94;99035.59;4141816;28;20257;-52
2022/05/20 00:54:43;;;;;;;1.95;1.85;;;;;;;18.55;78.20;99031.28;4138324;28;20802;-52
2022/05/20 00:56:50;;;;;;;4.10;1.95;;;;;;;18.58;78.37;99014.91;4138221;28;20571;-53
2022/05/20 00:58:53;;;;;;;2.25;1.90;;;;;;;18.47;78.51;99007.78;4130116;28;20702;-51
2022/05/20 01:00:56;;;;;;;2.35;2.03;;;;;;;18.48;78.49;99008.59;4135930;28;20264;-52
2022/05/20 01:03:03;;;;;;;2.33;2.13;;;;;;;18.52;78.05;99015.25;4132775;28;20221;-51
2022/05/20 01:05:17;;;;;;;1.63;1.40;;;;;;;18.53;77.31;99017.69;4124824;28;20220;-53
2022/05/20 01:07:19;;;;;;;2.47;1.40;;;;;;;18.55;77.22;99023.81;4139273;28;20205;-51
2022/05/20 01:09:21;;;;;;;2.67;1.52;;;;;;;18.57;77.32;99023.53;4138181;28;20246;-52
2022/05/20 01:11:23;;;;;;;2.03;1.52;;;;;;;18.60;76.90;99022.94;4137096;28;20259;-51
2022/05/20 01:13:27;;;;;;;1.98;1.88;;;;;;;18.62;76.56;99015.13;4139342;28;20205;-52
2022/05/20 01:15:29;;;;;;;2.10;1.70;;;;;;;18.66;76.47;99021.78;4139980;28;20214;-52
2022/05/20 01:17:31;;;;;;;8.18;1.88;;;;;;;18.66;77.35;99021.78;4138379;28;20267;-51
2022/05/20 01:19:44;;;;;;;2.30;1.80;;;;;;;18.68;76.99;99027.84;4142842;28;20996;-53
2022/05/20 01:21:46;;;;;;;2.05;1.90;;;;;;;18.63;77.32;99023.19;4139390;28;20268;-51
2022/05/20 01:23:48;;;;;;;1.70;1.58;;;;;;;18.61;77.56;99013.50;4142283;28;20216;-51
2022/05/20 01:25:52;;;;;;;1.55;1.40;;;;;;;18.65;77.24;99009.03;4136910;28;20240;-51
2022/05/20 01:27:54;;;;;;;2.63;1.83;;;;;;;18.49;78.45;99010.25;4136653;28;20210;-52
2022/05/20 01:29:56;;;;;;;2.47;1.70;;;;;;;18.46;78.43;99025.50;4136168;28;20214;-52
2022/05/20 01:31:57;;;;;;;1.90;1.80;;;;;;;18.46;78.49;99016.38;4120381;28;20631;-51
2022/05/20 01:33:59;;;;;;;4.05;1.67;;;;;;;18.31;79.29;99011.78;4139542;28;20606;-51
2022/05/20 01:36:04;;;;;;;2.35;1.95;;;;;;;18.34;78.88;99015.91;4138658;28;20702;-52
2022/05/20 01:38:06;;;;;;;1.70;1.33;;;;;;;18.34;78.72;99013.16;4138471;28;20672;-51
2022/05/20 01:40:09;;;;;;;1.77;1.67;;;;;;;18.35;78.36;99009.25;4140298;28;20208;-52
2022/05/20 01:42:27;;;;;;;2.28;1.63;;;;;;;18.38;78.13;99000.38;4137848;28;20233;-52
2022/05/20 01:44:40;;;;;;;1.42;1.33;;;;;;;18.39;78.10;99005.63;4135568;28;20552;-51
2022/05/20 01:46:52;;;;;;;1.17;1.08;;;;;;;18.42;78.04;99018.06;4149992;28;20776;-51
2022/05/20 01:49:11;;;;;;;1.60;1.42;;;;;;;18.42;77.60;99012.53;4153456;28;20686;-52
2022/05/20 01:51:17;;;;;;;1.25;1.15;;;;;;;18.44;77.35;99019.44;4138311;28;20233;-52
2022/05/20 01:53:31;;;;;;;0.95;0.95;;;;;;;18.45;77.55;99018.31;4128414;28;20643;-52
2022/05/20 01:55:38;;;;;;;1.50;1.40;;;;;;;18.46;77.10;99027.47;4144696;28;20259;-52
2022/05/20 01:57:58;;;;;;;1.60;1.20;;;;;;;18.47;77.22;99024.44;4135380;28;20206;-52
2022/05/20 02:00:11;;;;;;;1.70;1.40;;;;;;;18.49;77.08;99024.13;4139097;28;20217;-52
2022/05/20 02:02:24;;;;;;;1.42;1.13;;;;;;;18.50;77.67;99018.28;4138762;28;20236;-51
2022/05/20 02:04:32;;;;;;;1.60;1.50;;;;;;;18.48;76.52;99016.91;4119149;28;20309;-52
2022/05/20 02:06:38;;;;;;;1.27;1.17;;;;;;;18.50;77.45;99029.38;4137097;28;20245;-51
2022/05/20 02:08:53;;;;;;;1.67;1.27;;;;;;;18.50;76.75;99028.53;4137385;28;20699;-52
2022/05/20 02:11:20;;;;;;;2.22;1.42;;;;;;;18.50;76.93;99017.44;4138946;28;20750;-53
2022/05/20 02:13:23;;;;;;;1.30;1.10;;;;;;;18.49;76.55;99027.72;4116298;28;20245;-51
2022/05/20 02:15:29;;;;;;;1.42;1.20;;;;;;;18.48;76.69;99019.69;4140415;28;20213;-51
2022/05/20 02:17:37;;;;;;;1.38;1.27;;;;;;;18.49;77.02;99016.63;4138641;28;20212;-51
2022/05/20 02:19:42;;;;;;;2.58;1.80;;;;;;;18.47;76.93;99012.50;4143309;28;20260;-52
2022/05/20 02:21:54;;;;;;;2.05;1.85;;;;;;;18.49;77.79;99015.78;4136554;28;20246;-51
2022/05/20 02:24:00;;;;;;;1.30;1.20;;;;;;;18.25;79.29;99009.31;4137141;28;20202;-51
2022/05/20 02:26:09;;;;;;;1.65;1.55;;;;;;;18.17;79.38;99012.66;4138747;28;20214;-51
2022/05/20 02:28:31;;;;;;;2.42;1.80;;;;;;;18.12;79.61;99007.19;4145226;28;20209;-52
2022/05/20 02:30:34;;;;;;;1.30;1.20;;;;;;;18.17;79.13;99004.34;4142017;28;20268;-51
2022/05/20 02:32:41;;;;;;;3.05;1.70;;;;;;;18.11;79.64;99009.09;4150185;28;20690;-51
2022/05/20 02:34:43;;;;;;;3.15;1.90;;;;;;;18.03;79.91;99004.19;4153435;28;20208;-51
2022/05/20 02:36:45;;;;;;;1.77;1.65;;;;;;;17.92;80.12;99004.53;4137844;28;20206;-51
2022/05/20 02:38:46;;;;;;;2.10;1.90;;;;;;;18.02;79.52;99004.44;4141062;28;20209;-51
2022/05/20 02:40:50;;;;;;;2.05;1.80;;;;;;;17.93;80.04;99006.19;4137555;28;20622;-51
2022/05/20 02:42:52;;;;;;;2.13;1.70;;;;;;;17.95;79.59;99009.47;4145787;28;20777;-51
2022/05/20 02:44:55;;;;;;;2.13;1.92;;;;;;;18.00;79.51;99012.22;4139333;28;20210;-52
2022/05/20 02:46:57;;;;;;;2.13;1.90;;;;;;;18.01;78.99;99014.72;4140566;28;20202;-51
2022/05/20 02:48:59;;;;;;;2.05;1.88;;;;;;;17.99;79.48;99005.84;4142347;28;20213;-52
2022/05/20 02:51:00;;;;;;;1.65;1.55;;;;;;;18.01;79.07;99008.34;4138598;28;20683;-51
2022/05/20 02:53:02;;;;;;;1.67;1.58;;;;;;;18.00;79.24;98996.47;4139070;28;20217;-52
2022/05/20 02:55:05;;;;;;;4.00;1.85;;;;;;;18.02;78.66;99004.44;4137977;28;20676;-52
2022/05/20 02:57:07;;;;;;;1.50;1.38;;;;;;;18.02;78.42;99004.44;4143726;28;20206;-52
2022/05/20 03:06:09;;;;;;;2.13;1.65;;;;;;;18.00;78.73;98973.47;4139279;28;20582;-52
2022/05/20 03:08:11;;;;;;;2.00;1.80;;;;;;;18.00;78.28;98973.47;4140273;28;20210;-52
2022/05/20 03:10:13;;;;;;;2.15;1.95;;;;;;;17.98;78.04;98970.16;4136353;28;20217;-52
2022/05/20 03:12:15;;;;;;;1.92;1.77;;;;;;;17.98;78.05;98981.22;4135074;28;20289;-52
2022/05/20 03:14:21;;;;;;;2.20;2.00;;;;;;;17.94;78.97;98977.38;4126443;28;20237;-52
2022/05/20 03:16:22;;;;;;;1.20;1.10;;;;;;;17.95;78.17;98981.78;4137086;28;20247;-52
2022/05/20 03:18:24;;;;;;;2.58;2.33;;;;;;;17.96;77.79;98977.91;4142008;28;20546;-53
2022/05/20 03:20:26;;;;;;;4.03;2.88;;;;;;;18.01;77.94;98975.09;4142225;28;20220;-52
2022/05/20 03:22:27;;;;;;;4.28;3.53;;;;;;;17.82;79.82;98976.88;4141576;28;20370;-52
2022/05/20 03:24:30;;;;;;;5.05;3.97;;;;;;;17.67;80.85;98971.44;4139233;28;20582;-52
2022/05/20 03:26:33;;;;;;;4.70;3.83;;;;;;;17.55;81.46;98970.94;4151889;28;20470;-52
2022/05/20 03:28:35;;;;;;;2.60;2.40;;;;;;;17.56;81.05;98972.56;4137431;28;20209;-52
2022/05/20 03:30:36;;;;;;;2.90;2.70;;;;;;;17.63;80.22;98973.09;4137181;28;20572;-52
2022/05/20 03:32:39;;;;;;;3.65;3.33;;;;;;;17.67;79.69;98968.66;4140123;28;21021;-52
2022/05/20 03:34:41;;;;;;;3.40;3.10;;;;;;;17.72;79.51;98966.69;4136673;28;20213;-52
2022/05/20 03:36:44;;;;;;;12.90;4.32;;;;;;;17.74;79.53;98971.94;4137847;28;20830;-52
2022/05/20 03:38:45;;;;;;;3.22;2.92;;;;;;;17.73;79.14;98967.53;4126892;28;20214;-52
2022/05/20 03:40:47;;;;;;;3.63;3.30;;;;;;;17.72;78.83;98955.59;4137209;28;20202;-52
2022/05/20 03:42:49;;;;;;;3.35;3.05;;;;;;;17.70;78.77;98962.53;4136828;28;20245;-52
2022/05/20 03:44:51;;;;;;;4.32;3.95;;;;;;;17.64;79.51;98949.88;4141207;28;20750;-52
2022/05/20 03:46:54;;;;;;;4.65;4.25;;;;;;;17.55;80.39;98948.78;4133700;28;20237;-53
2022/05/20 03:48:58;;;;;;;3.95;3.65;;;;;;;17.51;80.16;98947.72;4135654;28;20512;-52
2022/05/20 03:51:14;;;;;;;4.68;4.05;;;;;;;17.53;80.27;98939.94;4136153;28;20226;-52
2022/05/20 03:53:16;;;;;;;5.28;4.78;;;;;;;17.39;81.35;98941.69;4135313;28;20275;-52
2022/05/20 03:55:18;;;;;;;4.45;4.05;;;;;;;17.40;80.91;98946.09;4133973;28;20214;-53
2022/05/20 03:57:19;;;;;;;5.22;4.72;;;;;;;17.22;82.03;98941.16;4126585;28;20742;-53
2022/05/20 03:59:21;;;;;;;4.45;3.78;;;;;;;17.28;82.01;98954.69;4134155;28;20249;-53
2022/05/20 04:03:45;;;;;;;4.45;4.00;;;;;;;17.20;82.81;98958.03;4138182;28;20675;-53
2022/05/20 04:05:46;;;;;;;5.03;4.18;;;;;;;17.27;82.14;98974.34;4142489;28;20209;-52
2022/05/20 04:07:48;;;;;;;8.48;4.35;;;;;;;17.34;81.47;98969.31;4139013;28;20604;-52
2022/05/20 04:09:50;;;;;;;4.72;4.32;;;;;;;17.40;81.04;98973.75;4138640;28;20213;-52
2022/05/20 04:11:55;;;;;;;5.72;3.83;;;;;;;17.49;80.85;98972.91;4135370;28;20267;-52
2022/05/20 04:13:57;;;;;;;4.60;4.05;;;;;;;17.48;80.12;98973.19;4148416;28;20205;-52
2022/05/20 04:15:58;;;;;;;3.03;2.83;;;;;;;17.51;79.86;98965.13;4150614;28;20248;-52
2022/05/20 04:18:00;;;;;;;3.38;3.08;;;;;;;17.52;79.48;98966.78;4141020;28;20201;-52
2022/05/20 04:20:03;;;;;;;3.10;2.90;;;;;;;17.54;79.61;98975.66;4139457;28;20206;-53
2022/05/20 04:22:08;;;;;;;3.03;2.45;;;;;;;17.55;79.08;98979.22;4134259;28;20293;-52
2022/05/20 04:24:09;;;;;;;3.85;2.85;;;;;;;17.55;78.92;98984.75;4135815;28;20216;-52
2022/05/20 04:26:11;;;;;;;2.35;2.15;;;;;;;17.58;78.88;98992.53;4142455;28;20209;-52
2022/05/20 04:28:13;;;;;;;2.10;1.85;;;;;;;17.60;78.77;98999.41;4136546;28;20218;-52
2022/05/20 04:30:15;;;;;;;3.03;2.65;;;;;;;17.62;79.07;99004.66;4150420;28;20217;-52
2022/05/20 04:32:17;;;;;;;3.83;3.45;;;;;;;17.65;78.91;99006.88;4149309;28;20255;-53
2022/05/20 04:34:20;;;;;;;3.00;2.60;;;;;;;17.60;79.34;99012.44;4134930;28;20233;-52
2022/05/20 04:36:22;;;;;;;2.50;2.30;;;;;;;17.58;79.20;99009.13;4124889;28;20219;-52
2022/05/20 04:38:23;;;;;;;2.22;2.03;;;;;;;17.62;79.37;99011.03;4132429;28;20283;-52
2022/05/20 04:40:25;;;;;;;6.38;2.53;;;;;;;17.46;80.66;99016.91;4135777;28;20205;-53
2022/05/20 04:47:29;;;;;;;2.30;2.08;;;;;;;17.09;82.71;99005.34;4138147;28;20263;-52
2022/05/20 04:49:32;;;;;;;2.45;1.88;;;;;;;17.17;82.56;99007.53;4136422;28;20320;-52
2022/05/20 04:51:34;;;;;;;1.90;1.80;;;;;;;17.16;82.65;99016.97;4141040;28;20268;-53
2022/05/20 04:55:56;;;;;;;2.05;1.38;;;;;;;17.30;81.75;99018.03;4137816;28;20198;-53
2022/05/20 04:57:58;;;;;;;2.90;2.25;;;;;;;17.35;81.92;99020.78;4132733;28;20236;-52
2022/05/20 05:00:05;;;;;;;1.85;1.75;;;;;;;17.36;81.93;99019.66;4132584;28;20202;-52
2022/05/20 05:02:08;;;;;;;1.73;1.63;;;;;;;17.40;81.68;99012.50;4135018;28;20268;-52
2022/05/20 05:04:10;;;;;;;2.15;1.52;;;;;;;17.49;81.28;99022.72;4134847;28;20209;-51
2022/05/20 05:06:12;;;;;;;1.65;1.35;;;;;;;17.50;80.83;99013.28;4136500;28;20558;-52
2022/05/20 05:08:16;;;;;;;1.75;1.63;;;;;;;17.50;80.97;99018.84;4140383;28;20213;-53
2022/05/20 05:10:20;;;;;;;2.30;1.85;;;;;;;17.39;82.05;99027.47;4133016;28;20553;-53
2022/05/20 05:12:23;;;;;;;2.08;1.58;;;;;;;17.54;81.02;99024.63;4137515;28;20298;-52
2022/05/20 05:14:24;;;;;;;4.30;1.85;;;;;;;17.51;81.19;99027.97;4136943;28;20209;-52
2022/05/20 05:16:26;;;;;;;1.67;1.58;;;;;;;17.47;81.54;99013.88;4137352;28;20718;-52
2022/05/20 05:18:28;;;;;;;2.08;1.90;;;;;;;17.17;82.99;99007.53;4137419;28;20202;-52
2022/05/20 05:20:32;;;;;;;1.75;1.65;;;;;;;17.14;83.75;99005.34;4141716;28;20272;-52
2022/05/20 05:22:34;;;;;;;2.33;2.13;;;;;;;17.26;83.55;99005.88;4126215;28;20731;-52
2022/05/20 05:24:43;;;;;;;2.10;1.77;;;;;;;17.28;83.45;99011.94;4139480;28;20584;-53
2022/05/20 05:26:45;;;;;;;1.58;1.48;;;;;;;17.40;83.15;99013.31;4138871;28;20205;-53
2022/05/20 05:28:48;;;;;;;2.17;1.98;;;;;;;17.45;82.53;99006.97;4141310;28;20306;-53
2022/05/20 05:30:56;;;;;;;2.08;1.88;;;;;;;17.46;82.89;99014.16;4123216;28;20244;-53
2022/05/20 05:32:58;;;;;;;1.70;1.60;;;;;;;17.56;83.23;99011.31;4145367;28;20202;-52
2022/05/20 05:35:00;;;;;;;2.05;1.95;;;;;;;17.76;83.11;99011.25;4152391;28;20219;-52
2022/05/20 05:37:02;;;;;;;2.50;1.75;;;;;;;17.92;82.97;99004.53;4140949;28;20279;-53
2022/05/20 05:39:04;;;;;;;3.25;2.13;;;;;;;18.00;82.52;99006.69;4136987;28;20725;-53
2022/05/20 05:41:05;;;;;;;3.05;2.05;;;;;;;18.14;81.96;99002.16;4137390;28;20318;-52
2022/05/20 05:43:07;;;;;;;2.13;1.92;;;;;;;18.34;81.86;99007.59;4142033;28;20201;-52
2022/05/20 05:45:12;;;;;;;3.22;2.13;;;;;;;18.54;81.28;99013.00;4137481;28;20237;-53
2022/05/20 05:47:15;;;;;;;2.50;2.28;;;;;;;18.65;80.05;99020.13;4137712;28;20895;-53
2022/05/20 05:49:16;;;;;;;2.30;2.10;;;;;;;18.76;79.96;99027.22;4138318;28;20751;-52
2022/05/20 05:51:18;;;;;;;3.47;3.17;;;;;;;18.83;80.17;99011.06;4142408;28;20233;-54
2022/05/20 05:53:21;;;;;;;2.80;2.50;;;;;;;18.89;79.89;99012.69;4122965;28;20668;-51
2022/05/20 05:55:24;;;;;;;6.05;3.67;;;;;;;18.92;79.51;99009.34;4138816;28;20209;-53
2022/05/20 05:57:25;;;;;;;3.05;2.75;;;;;;;18.88;79.05;99008.25;4151136;28;20221;-53
2022/05/20 05:59:28;;;;;;;4.15;3.00;;;;;;;18.92;78.76;98998.25;4138682;28;20214;-52
2022/05/20 06:01:30;;;;;;;4.18;3.80;;;;;;;18.85;79.99;98997.75;4153923;28;20221;-51
2022/05/20 06:03:37;;;;;;;3.78;3.47;;;;;;;19.05;79.84;98997.56;4138514;28;20211;-52
2022/05/20 06:05:38;;;;;;;4.32;3.80;;;;;;;19.09;78.46;98998.63;4138467;28;20202;-53
2022/05/20 06:07:40;;;;;;;4.07;3.75;;;;;;;19.00;79.28;99004.00;4137498;28;20649;-52
2022/05/20 06:09:42;;;;;;;4.15;3.75;;;;;;;19.01;79.32;99002.03;4139917;28;20628;-53
2022/05/20 06:11:44;;;;;;;6.90;4.03;;;;;;;18.87;80.04;99006.59;4142309;28;20229;-52
2022/05/20 06:13:45;;;;;;;7.03;4.93;;;;;;;18.99;80.46;99009.81;4122354;28;20276;-52
2022/05/20 06:15:47;;;;;;;5.30;3.65;;;;;;;19.10;80.21;99005.81;4137552;28;20643;-53
2022/05/20 06:17:50;;;;;;;3.83;3.42;;;;;;;19.20;79.59;99006.59;4132695;28;20718;-53
2022/05/20 06:19:52;;;;;;;4.35;3.22;;;;;;;19.37;78.69;99003.34;4132063;28;20539;-53
2022/05/20 06:21:53;;;;;;;4.85;4.35;;;;;;;19.42;79.14;99008.81;4132182;28;20421;-53
2022/05/20 06:24:01;;;;;;;3.78;3.42;;;;;;;19.63;78.67;99007.47;4133469;28;20213;-53
2022/05/20 06:26:03;;;;;;;4.40;4.10;;;;;;;19.55;78.63;98999.78;4116378;28;20797;-53
2022/05/20 06:28:20;;;;;;;4.53;4.10;;;;;;;19.73;78.73;99004.56;4122494;28;20652;-52
2022/05/20 06:30:22;;;;;;;4.32;3.92;;;;;;;19.91;77.23;98996.25;4141417;28;21034;-51
2022/05/20 06:32:24;;;;;;;5.63;4.97;;;;;;;19.86;77.71;99001.88;4135286;28;20724;-52
2022/05/20 06:34:25;;;;;;;5.28;4.78;;;;;;;19.95;76.78;98996.50;4141368;28;20204;-52
2022/05/20 06:41:08;;;;;;;7.10;6.43;;;;;;;19.94;77.06;99000.41;4137854;28;20236;-51
2022/05/20 06:43:13;;;;;;;7.00;6.40;;;;;;;20.06;76.87;98993.28;4136784;28;20655;-53
2022/05/20 06:45:16;;;;;;;6.85;6.30;;;;;;;20.12;77.09;99003.22;4142665;28;20209;-51
2022/05/20 06:47:17;;;;;;;6.32;5.72;;;;;;;20.02;76.51;98997.78;4139207;28;20201;-52
2022/05/20 06:49:19;;;;;;;7.72;5.75;;;;;;;20.28;76.72;98990.75;4121252;28;20603;-52
2022/05/20 06:51:24;;;;;;;8.45;5.93;;;;;;;20.42;76.86;98996.38;4140444;28;20222;-53
2022/05/20 06:53:25;;;;;;;6.38;4.65;;;;;;;20.62;75.99;98996.03;4139381;28;20197;-52
2022/05/20 06:55:27;;;;;;;5.65;5.05;;;;;;;20.78;76.02;98991.91;4137439;28;20213;-52
2022/05/20 06:57:29;;;;;;;7.90;6.03;;;;;;;20.76;75.72;98991.34;4152989;28;20316;-52
2022/05/20 06:59:31;;;;;;;4.97;4.55;;;;;;;21.02;74.62;98995.38;4139155;28;20220;-53
2022/05/20 07:01:33;;;;;;;5.85;5.35;;;;;;;20.83;74.45;98986.22;4136916;28;20324;-52
2022/05/20 07:03:35;;;;;;;8.18;7.38;;;;;;;20.72;74.86;98984.75;4139255;28;20545;-52
2022/05/20 07:05:37;;;;;;;6.63;6.03;;;;;;;20.81;74.72;98988.50;4139695;28;20231;-52
2022/05/20 07:07:43;;;;;;;6.57;5.18;;;;;;;20.91;74.85;98978.03;4128800;28;20233;-51
2022/05/20 07:09:44;;;;;;;7.55;6.85;;;;;;;20.98;74.00;98984.03;4137745;28;20688;-52
2022/05/20 07:11:49;;;;;;;7.00;6.30;;;;;;;21.08;74.22;98971.88;4135904;28;20232;-52
2022/05/20 07:13:55;;;;;;;6.63;5.82;;;;;;;21.17;73.58;98973.66;4137479;28;20296;-52
2022/05/20 07:15:58;;;;;;;7.40;6.60;;;;;;;21.13;74.34;98969.84;4136268;28;20209;-52
2022/05/20 07:18:00;;;;;;;6.57;6.00;;;;;;;21.28;73.18;98968.72;4140072;28;20205;-52
2022/05/20 07:20:05;;;;;;;6.00;5.45;;;;;;;21.37;73.71;98966.88;4137344;28;20213;-52
2022/05/20 07:22:08;;;;;;;6.25;5.63;;;;;;;21.45;73.75;98955.00;4136936;28;20621;-52
2022/05/20 07:24:10;;;;;;;6.40;5.85;;;;;;;21.70;74.03;98962.88;4135955;28;20235;-51
2022/05/20 07:26:17;;;;;;;6.90;6.22;;;;;;;22.00;73.04;98956.63;4136681;28;20259;-52
2022/05/20 07:28:19;;;;;;;7.15;5.80;;;;;;;21.83;72.72;98953.69;4141973;28;20205;-51
2022/05/20 07:30:21;;;;;;;6.43;5.85;;;;;;;21.90;72.58;98951.28;4136863;28;20204;-51
2022/05/20 07:32:22;;;;;;;6.50;5.88;;;;;;;21.77;72.58;98952.94;4136357;28;20232;-52
2022/05/20 07:34:24;;;;;;;6.05;5.50;;;;;;;21.89;72.37;98949.63;4122707;28;20305;-52
2022/05/20 07:36:26;;;;;;;6.03;5.43;;;;;;;21.92;72.10;98949.81;4137756;28;20695;-52
2022/05/20 07:38:28;;;;;;;5.72;5.18;;;;;;;22.19;72.65;98943.34;4139909;28;20630;-53
2022/05/20 07:40:30;;;;;;;5.50;5.00;;;;;;;22.60;71.33;98944.03;4140902;28;20236;-51
2022/05/20 07:42:32;;;;;;;8.40;5.90;;;;;;;22.43;69.74;98955.09;4143342;28;20217;-51
2022/05/20 07:44:36;;;;;;;5.22;4.72;;;;;;;22.72;69.84;98949.88;4133473;28;20319;-51
2022/05/20 07:46:38;;;;;;;7.20;4.72;;;;;;;23.06;69.28;98952.88;4136154;28;20267;-51
2022/05/20 07:48:40;;;;;;;5.32;4.80;;;;;;;23.17;68.06;98945.91;4183424;23;20288;-52
2022/05/20 07:50:45;;;;;;;4.75;4.35;;;;;;;23.30;67.26;98953.38;4181330;28;20298;-52
2022/05/20 07:55:16;;;;;;;4.72;3.30;;;;;;;23.27;66.21;98948.41;4220983;28;20275;-52
2022/05/20 07:57:23;;;;;;;4.45;4.05;;;;;;;23.18;64.97;98947.56;4198752;28;20206;-52
2022/05/20 07:59:32;;;;;;;9.57;4.05;;;;;;;23.14;64.91;98949.28;4207810;28;20285;-51
2022/05/20 08:01:36;;;;;;;4.43;3.42;;;;;;;23.28;64.43;98936.91;4206941;28;20222;-53
2022/05/20 08:05:59;;;;;;;2.83;2.63;;;;;;;23.46;63.67;98944.22;4220957;28;20198;-53
2022/05/20 08:08:06;;;;;;;3.35;2.72;;;;;;;23.89;65.19;98944.38;4220634;28;20278;-52
2022/05/20 08:10:10;;;;;;;3.80;2.63;;;;;;;23.98;63.56;98943.22;4203475;28;20218;-53
2022/05/20 08:12:13;;;;;;;2.58;2.38;;;;;;;24.25;61.52;98928.94;4201972;28;20777;-53
2022/05/20 08:14:21;;;;;;;3.67;2.75;;;;;;;24.63;61.86;98922.38;4209479;28;20617;-52
2022/05/20 08:16:23;;;;;;;4.50;1.75;;;;;;;24.29;59.28;98927.13;4202446;28;20206;-52
2022/05/20 08:18:27;;;;;;;2.13;1.80;;;;;;;23.87;59.26;98924.28;4202796;28;20194;-52
2022/05/20 08:20:30;;;;;;;2.00;1.40;;;;;;;24.22;58.56;98918.41;4203860;28;20217;-51
2022/05/20 08:22:32;;;;;;;1.20;1.10;;;;;;;24.11;57.02;98926.31;4201887;28;20257;-52
2022/05/20 08:24:34;;;;;;;1.15;1.05;;;;;;;24.27;57.08;98927.44;4219108;28;20209;-53
2022/05/20 08:26:36;;;;;;;1.70;1.10;;;;;;;24.56;59.23;98932.41;4215005;28;20206;-52
2022/05/20 08:28:41;;;;;;;1.55;1.30;;;;;;;24.88;59.24;98927.13;4198839;28;20207;-52
2022/05/20 08:30:43;;;;;;;2.95;1.42;;;;;;;24.58;56.86;98930.94;4217196;28;20209;-53
2022/05/20 08:32:45;;;;;;;1.15;1.05;;;;;;;24.77;57.73;98928.59;4203953;28;20264;-52
2022/05/20 08:34:47;;;;;;;1.45;1.20;;;;;;;24.84;56.21;98923.31;4202451;28;20202;-52
2022/05/20 08:36:48;;;;;;;1.20;1.10;;;;;;;24.98;57.84;98929.53;4191757;28;20281;-52
2022/05/20 08:38:50;;;;;;;2.10;1.00;;;;;;;24.95;56.64;98930.22;4201890;28;20206;-52
2022/05/20 08:40:52;;;;;;;1.58;1.27;;;;;;;25.09;55.63;98930.84;4218202;28;20753;-52
2022/05/20 08:42:57;;;;;;;1.20;1.10;;;;;;;25.12;55.08;98930.16;4206838;28;20292;-52
2022/05/20 08:45:01;;;;;;;2.83;1.48;;;;;;;25.20;55.48;98926.50;4206360;28;20210;-52
2022/05/20 08:47:23;;;;;;;1.63;1.10;;;;;;;25.19;55.69;98935.25;4207530;28;20197;-52
2022/05/20 08:49:25;;;;;;;1.63;1.17;;;;;;;25.11;55.02;98922.91;4202556;28;20202;-52
2022/05/20 08:51:33;;;;;;;3.25;0.98;;;;;;;25.04;54.25;98922.59;4206181;28;20245;-52
2022/05/20 08:53:40;;;;;;;0.95;0.80;;;;;;;24.95;54.53;98919.03;4221320;28;20628;-51
2022/05/20 08:55:45;;;;;;;1.95;1.10;;;;;;;24.75;54.98;98925.31;4204532;28;20237;-51
2022/05/20 08:58:01;;;;;;;7.53;1.58;;;;;;;24.76;54.50;98906.53;4189073;28;20231;-52
2022/05/20 09:00:09;;;;;;;1.00;0.93;;;;;;;24.95;53.51;98907.81;4196647;28;20206;-52
2022/05/20 09:02:11;;;;;;;1.27;1.15;;;;;;;25.23;53.14;98914.66;4221636;28;20279;-52
2022/05/20 09:04:15;;;;;;;1.17;0.90;;;;;;;25.25;55.46;98912.34;4203011;28;20830;-52
2022/05/20 09:06:17;;;;;;;2.60;1.63;;;;;;;25.75;56.37;98904.00;4203698;28;20230;-51
2022/05/20 09:08:28;;;;;;;1.17;1.08;;;;;;;26.07;54.65;98898.50;4189791;28;20215;-51
2022/05/20 09:10:32;;;;;;;1.70;1.02;;;;;;;26.31;53.62;98889.41;4190161;28;20248;-52
2022/05/20 09:12:36;;;;;;;1.35;0.80;;;;;;;26.31;52.81;98889.41;4200725;28;20218;-52
2022/05/20 09:17:13;;;;;;;2.13;1.17;;;;;;;26.14;50.98;98867.91;4221439;28;20288;-52
2022/05/20 09:19:25;;;;;;;0.80;0.68;;;;;;;26.31;51.08;98866.94;4219476;28;20614;-52
2022/05/20 09:21:33;;;;;;;1.23;0.95;;;;;;;25.94;50.58;98873.53;4189033;28;20269;-51
2022/05/20 09:23:51;;;;;;;1.58;1.25;;;;;;;26.08;51.65;98869.31;4217499;27;20550;-51
2022/05/20 09:26:00;;;;;;;1.42;0.82;;;;;;;26.40;51.79;98862.91;4186419;28;20277;-52
2022/05/20 09:28:13;;;;;;;1.27;1.17;;;;;;;26.55;52.80;98862.31;4202078;28;20201;-51
2022/05/20 09:30:20;;;;;;;1.10;0.90;;;;;;;27.02;52.30;98863.59;4221798;28;20201;-52
2022/05/20 09:32:44;;;;;;;3.60;0.80;;;;;;;26.88;49.78;98865.91;4203757;28;20216;-52
2022/05/20 09:34:45;;;;;;;1.10;1.00;;;;;;;27.06;50.36;98863.72;4203101;28;20254;-52
2022/05/20 09:37:17;;;;;;;7.68;1.85;;;;;;;27.35;50.82;98863.53;4205575;28;20232;-52
2022/05/20 09:39:24;;;;;;;0.82;0.80;;;;;;;27.23;48.39;98855.91;4208352;28;20567;-53
2022/05/20 09:41:25;;;;;;;1.27;1.05;;;;;;;27.01;47.65;98853.53;4219054;28;20863;-51
2022/05/20 09:43:30;;;;;;;1.40;1.00;;;;;;;26.92;49.76;98849.97;4205364;28;20234;-52
2022/05/20 09:45:41;;;;;;;2.90;1.27;;;;;;;27.18;51.11;98850.53;4218719;28;20658;-52
2022/05/20 09:47:48;;;;;;;4.18;0.95;;;;;;;27.37;48.34;98842.31;4210127;28;20225;-53
2022/05/20 09:50:03;;;;;;;0.73;0.63;;;;;;;27.51;47.72;98856.84;4208418;28;20611;-52
2022/05/20 09:52:21;;;;;;;1.50;0.98;;;;;;;27.44;47.97;98856.63;4203585;28;20232;-52
2022/05/20 09:54:40;;;;;;;1.75;1.23;;;;;;;27.72;47.08;98849.09;4200032;28;20207;-51
2022/05/20 09:57:02;;;;;;;8.32;1.80;;;;;;;27.68;48.06;98851.00;4204114;28;20203;-52
2022/05/20 09:59:06;;;;;;;2.22;1.60;;;;;;;27.47;47.07;98833.41;4215439;27;20698;-52
2022/05/20 10:01:14;;;;;;;0.77;0.77;;;;;;;27.56;48.60;98842.56;4217309;27;20234;-52
2022/05/20 10:03:28;;;;;;;3.63;0.77;;;;;;;27.05;48.27;98848.03;4196303;28;20316;-51
2022/05/20 10:05:47;;;;;;;2.08;1.10;;;;;;;27.46;49.77;98847.84;4203072;28;20214;-51
2022/05/20 10:07:55;;;;;;;1.67;1.25;;;;;;;27.69;48.88;98840.53;4204300;28;20202;-52
2022/05/20 10:10:13;;;;;;;0.50;0.50;;;;;;;27.35;46.53;98852.28;4220521;28;20197;-51
2022/05/20 10:12:35;;;;;;;0.80;0.80;;;;;;;27.09;47.49;98854.56;4203846;28;20226;-51
2022/05/20 10:14:53;;;;;;;1.58;1.38;;;;;;;27.36;48.36;98849.13;4202626;28;20225;-51
2022/05/20 10:17:02;;;;;;;1.00;0.90;;;;;;;27.37;47.50;98845.13;4191962;28;20228;-49